Weather at Dien Bien Phu Airport

Public forecast

Using degrees Celsius for public forecast. Weather courtesy of forecast.io.

Closest aviation weather report (METAR) to Dien Bien Phu Airport

Report is more than 6 hours old.

Closest report is Luang Namtha Airport, 93.7 nm (173.5 km) WSW. Retrieved 2021/06/15 12:00 UTC (10 hours ago):

VLLN 151200Z 32004KT 7000 SCT020 SCT100 26/24 Q1005 NOSIG

Closest aviation forecast (TAF) to Dien Bien Phu Airport

Forecast is more than 6 hours old.

Closest forecast is Luang Namtha Airport, 93.7 nm (173.5 km) WSW. Retrieved 2021/06/15 12:00 UTC (10 hours ago):

TAF VLLN 151100Z 1512/1612 22004KT 7000 SCT020 BKN100 TEMPO 1516/1522 3000 BR SCT010 OVC090